METAR AND TAF INFORMATION
METAR FOR PACZ
ADDS - METARS form results

(0456 UTC 26 August 2019)
Data provider http://aviationweather.gov/metar/data/
 
METAR text: PACZ 260443Z AUTO 28008KT 10SM OVC012 10/08 A3001 RMK AO2 SLP163
Conditions at: PACZ (CAPE ROMANZOF , AK, US) observed 0443 UTC 26 August 2019
Temperature: 10.0°C (50°F)
Dewpoint: 8.0°C (46°F) [RH = 87%]
Pressure (altimeter): 30.01 inches Hg (1016.3 mb)
[Sea-level pressure: 1016.3 mb]
Winds: from the W (280 degrees) at 9 MPH (8 knots; 4.1 m/s)
Visibility: 10 or more miles (16+ km)
Ceiling: 1200 feet AGL
Clouds: overcast cloud deck at 1200 feet AGL
Weather: automated observation with no human augmentation;
there may or may not be significant weather present at this time

 AIRPORT MAP

 RUNWAY INFORMATION
Runway 02 Runway length 3990 ft Runway width 135 ft
Runway elevation 367 ft Runway displaced threshold 0 ft Runway heading 37
Runway 20 Runway length 3990 ft Runway width 135 ft
Runway elevation 457 ft Runway displaced threshold 0 ft Runway heading 217

 AIRPORT FREQUENCIES
Type ARTC Name ANCHORAGE Frequency 124.5 MHZ
Type CNTR Name ANCHORAGE Frequency 132.5 MHZ
Type FSS Name KENAI RDO Frequency 122.1 MHZ
Type INFO Name INFO Frequency 126.2 MHZ

 AIRPORT NEAR NAVIGATION AIDS
Type NDB Name Cape Romanzof Frequency 275 KHZ
Type DME Name Cape Romanzof Frequency 116750 KHZ



We are a FlightSim virtual group and are in no way affiliated with RavnAir Group.

Powered by Virtual Airlines Manager [v2.6.2]